createdAt,value
2018-04-13T00:01:26.990Z,19
2018-04-13T00:11:28.927Z,19
2018-04-13T00:21:26.987Z,19
2018-04-13T00:31:27.929Z,19
2018-04-13T00:41:27.667Z,19
2018-04-13T00:51:27.516Z,19
2018-04-13T01:01:29.984Z,19
2018-04-13T01:51:28.210Z,18
2018-04-13T02:01:28.293Z,18
2018-04-13T02:11:27.551Z,18
2018-04-13T02:21:27.805Z,18
2018-04-13T02:31:27.545Z,18
2018-04-13T02:41:29.910Z,18
2018-04-13T02:51:29.067Z,18
2018-04-13T03:01:28.056Z,18
2018-04-13T03:11:29.029Z,18
2018-04-13T03:21:29.350Z,18
2018-04-13T03:31:27.177Z,18
2018-04-13T03:41:27.911Z,18
2018-04-13T03:51:28.184Z,18
2018-04-13T04:01:30.674Z,18
2018-04-13T04:11:28.166Z,18
2018-04-13T04:21:29.355Z,18
2018-04-13T04:31:29.891Z,18
2018-04-13T04:41:30.131Z,18
2018-04-13T04:51:28.338Z,17
2018-04-13T05:01:27.133Z,17
2018-04-13T05:11:33.752Z,17
2018-04-13T05:21:27.728Z,17
2018-04-13T05:31:30.200Z,17
2018-04-13T05:41:28.123Z,17
2018-04-13T05:51:28.133Z,17
2018-04-13T06:01:29.122Z,17
2018-04-13T06:11:27.798Z,17
2018-04-13T06:21:28.008Z,17
2018-04-13T06:31:29.688Z,17
2018-04-13T06:41:28.331Z,17
2018-04-13T06:51:29.710Z,18
2018-04-13T07:01:27.734Z,18
2018-04-13T07:11:29.448Z,18
2018-04-13T07:21:27.583Z,18
2018-04-13T07:31:28.039Z,18
2018-04-13T07:41:29.737Z,19
2018-04-13T07:51:27.158Z,19
2018-04-13T08:01:27.185Z,19
2018-04-13T08:11:29.672Z,20
2018-04-13T08:21:26.788Z,20
2018-04-13T08:31:27.781Z,20
2018-04-13T08:41:27.591Z,20
2018-04-13T08:51:27.316Z,20
2018-04-13T09:01:28.453Z,20
2018-04-13T09:11:29.139Z,21
2018-04-13T09:21:27.540Z,21
2018-04-13T09:31:27.269Z,21
2018-04-13T09:41:28.145Z,21
2018-04-13T09:51:27.255Z,22
2018-04-13T10:01:27.070Z,22
2018-04-13T10:11:27.081Z,22
2018-04-13T10:21:26.031Z,22
2018-04-13T10:31:26.899Z,23
2018-04-13T10:41:29.890Z,23
2018-04-13T10:51:26.785Z,23
2018-04-13T11:01:28.834Z,23
2018-04-13T11:11:27.309Z,23
2018-04-13T11:21:28.783Z,23
2018-04-13T11:31:32.299Z,23
2018-04-13T11:41:27.543Z,23
2018-04-13T11:51:28.641Z,23
2018-04-13T12:01:26.590Z,23
2018-04-13T12:11:30.294Z,23
2018-04-13T12:21:26.389Z,23
2018-04-13T12:31:26.280Z,22
2018-04-13T12:41:33.566Z,22
2018-04-13T12:51:27.431Z,22
2018-04-13T13:01:29.517Z,20
2018-04-13T13:11:27.633Z,20
2018-04-13T13:21:27.642Z,19
2018-04-13T13:31:28.833Z,20
2018-04-13T13:41:27.611Z,20
2018-04-13T13:51:26.488Z,20
2018-04-13T14:01:28.261Z,19
2018-04-13T14:11:28.630Z,19
2018-04-13T14:21:27.350Z,19
2018-04-13T14:31:27.345Z,19
2018-04-13T14:41:28.284Z,20
2018-04-13T14:51:27.851Z,20
2018-04-13T15:01:28.664Z,21
2018-04-13T15:11:26.789Z,21
2018-04-13T15:21:28.641Z,22
2018-04-13T15:31:26.434Z,22
2018-04-13T15:41:27.968Z,23
2018-04-13T15:51:29.278Z,23
2018-04-13T16:01:27.078Z,23
2018-04-13T16:11:27.659Z,23
2018-04-13T16:21:29.484Z,23
2018-04-13T16:31:27.084Z,22
2018-04-13T16:41:27.065Z,22
2018-04-13T16:51:28.132Z,22
2018-04-13T17:01:27.981Z,22
2018-04-13T17:11:28.041Z,22
2018-04-13T17:21:28.003Z,21
2018-04-13T17:31:28.081Z,21
2018-04-13T17:41:29.779Z,21
2018-04-13T17:51:26.454Z,20
2018-04-13T18:01:26.371Z,20
2018-04-13T18:11:26.189Z,20
2018-04-13T18:21:29.244Z,20
2018-04-13T18:31:27.058Z,20
2018-04-13T18:41:26.839Z,20
2018-04-13T18:51:29.275Z,20
2018-04-13T19:01:28.489Z,20
2018-04-13T19:11:29.379Z,20
2018-04-13T19:21:26.671Z,20
2018-04-13T19:31:28.585Z,20
2018-04-13T19:41:28.593Z,19
2018-04-13T19:51:28.484Z,19
2018-04-13T20:01:29.535Z,19
2018-04-13T20:11:29.706Z,19
2018-04-13T20:21:30.361Z,19
2018-04-13T20:31:26.371Z,19
2018-04-13T20:41:34.235Z,19
2018-04-13T20:51:28.289Z,18
2018-04-13T21:01:28.609Z,18
2018-04-13T21:11:28.827Z,18
2018-04-13T21:21:28.134Z,18
2018-04-13T21:31:27.702Z,18
2018-04-13T21:41:30.348Z,17
2018-04-13T21:51:28.398Z,17
2018-04-13T22:01:33.980Z,17
2018-04-13T22:11:28.661Z,18
2018-04-13T22:21:27.960Z,17
2018-04-13T22:31:29.112Z,17
2018-04-13T22:41:27.956Z,17
2018-04-13T22:51:34.212Z,17
2018-04-13T23:01:34.416Z,16
2018-04-13T23:11:27.707Z,17
2018-04-13T23:21:57.877Z,17
2018-04-13T23:31:27.884Z,17
2018-04-13T23:51:29.542Z,17
